createdAt,value
2023-11-30T00:00:20.546Z,24.36
2023-11-30T00:00:50.588Z,24.36
2023-11-30T00:01:20.671Z,24.35
2023-11-30T00:01:50.718Z,24.33
2023-11-30T00:02:20.774Z,24.32
2023-11-30T00:02:50.760Z,24.32
2023-11-30T00:03:51.030Z,24.33
2023-11-30T00:04:20.953Z,24.33
2023-11-30T00:04:50.982Z,24.38
2023-11-30T00:05:23.454Z,24.35
2023-11-30T00:05:51.122Z,24.35
2023-11-30T00:06:21.158Z,24.35
2023-11-30T00:06:51.143Z,24.33
2023-11-30T00:07:21.157Z,24.29
2023-11-30T00:07:51.150Z,24.27
2023-11-30T00:08:21.153Z,24.29
2023-11-30T00:08:51.222Z,24.32
2023-11-30T00:09:21.305Z,24.32
2023-11-30T00:09:51.326Z,24.30
2023-11-30T00:10:21.326Z,24.32
2023-11-30T00:10:51.332Z,24.29
2023-11-30T00:11:21.354Z,24.32
2023-11-30T00:11:51.396Z,24.33
2023-11-30T00:12:21.412Z,24.35
2023-11-30T00:12:51.419Z,24.38
2023-11-30T00:13:21.421Z,24.38
2023-11-30T00:13:51.443Z,24.35
2023-11-30T00:14:51.583Z,24.33
2023-11-30T00:15:21.712Z,24.32
2023-11-30T00:15:51.598Z,24.32
2023-11-30T00:16:21.645Z,24.29
2023-11-30T00:16:51.705Z,24.32
2023-11-30T00:17:21.660Z,24.30
2023-11-30T00:17:51.795Z,24.32
2023-11-30T00:18:21.855Z,24.27
2023-11-30T00:18:51.872Z,24.27
2023-11-30T00:19:21.888Z,24.26
2023-11-30T00:19:51.957Z,24.26
2023-11-30T00:20:22.076Z,24.29
2023-11-30T00:20:52.233Z,24.30
2023-11-30T00:21:22.357Z,24.32
2023-11-30T00:21:52.300Z,24.30
2023-11-30T00:22:22.389Z,24.30
2023-11-30T00:22:52.468Z,24.32
2023-11-30T00:23:22.551Z,24.35
2023-11-30T00:23:52.704Z,24.33
2023-11-30T00:24:22.753Z,24.36
2023-11-30T00:24:52.716Z,24.35
2023-11-30T00:25:22.797Z,24.38
2023-11-30T00:25:52.889Z,24.38
2023-11-30T00:26:22.897Z,24.35
2023-11-30T00:26:52.930Z,24.30
2023-11-30T00:27:23.008Z,24.35
2023-11-30T00:27:52.996Z,24.33
2023-11-30T00:28:23.058Z,24.35
2023-11-30T00:28:53.065Z,24.33
2023-11-30T00:29:23.061Z,24.32
2023-11-30T00:30:23.181Z,24.32
2023-11-30T00:30:53.210Z,24.33
2023-11-30T00:31:23.238Z,24.32
2023-11-30T00:31:53.260Z,24.36
2023-11-30T00:32:23.257Z,24.33
2023-11-30T00:32:53.331Z,24.35
2023-11-30T00:33:23.450Z,24.35
2023-11-30T00:33:53.373Z,24.35
2023-11-30T00:34:53.460Z,24.38
2023-11-30T00:35:23.454Z,24.39
2023-11-30T00:35:53.468Z,24.40
2023-11-30T00:36:23.491Z,24.36
2023-11-30T00:36:53.487Z,24.36
2023-11-30T00:37:23.484Z,24.39
2023-11-30T00:38:23.567Z,24.43
2023-11-30T00:38:53.609Z,24.40
2023-11-30T00:39:23.583Z,24.42
2023-11-30T00:39:53.659Z,24.42
2023-11-30T00:40:23.708Z,24.43
2023-11-30T00:40:53.704Z,24.43
2023-11-30T00:41:23.771Z,24.43
2023-11-30T00:41:53.808Z,24.40
2023-11-30T00:42:23.901Z,24.43
2023-11-30T00:42:53.993Z,24.42
2023-11-30T00:43:24.028Z,24.44
2023-11-30T00:43:54.030Z,24.49
2023-11-30T00:44:24.028Z,24.46
2023-11-30T00:45:24.210Z,24.44
2023-11-30T00:46:03.258Z,24.43
2023-11-30T00:46:24.232Z,24.39
2023-11-30T00:46:54.280Z,24.40
2023-11-30T00:47:24.291Z,24.39
2023-11-30T00:47:54.345Z,24.43
2023-11-30T00:48:24.452Z,24.43
2023-11-30T00:48:54.392Z,24.47
2023-11-30T00:49:24.375Z,24.46
2023-11-30T00:50:24.477Z,24.46
2023-11-30T00:50:54.600Z,24.46
2023-11-30T00:51:24.620Z,24.43
2023-11-30T00:51:54.652Z,24.42
2023-11-30T00:52:24.709Z,24.40
2023-11-30T00:52:54.715Z,24.43
2023-11-30T00:53:24.711Z,24.46
2023-11-30T00:53:54.753Z,24.44
2023-11-30T00:54:24.762Z,24.44
2023-11-30T00:54:54.766Z,24.49
2023-11-30T00:55:24.768Z,24.46
2023-11-30T00:55:54.774Z,24.47
2023-11-30T00:56:24.782Z,24.47
2023-11-30T00:56:54.801Z,24.47
2023-11-30T00:57:24.809Z,24.46
2023-11-30T00:57:54.851Z,24.46
2023-11-30T00:58:24.847Z,24.44
2023-11-30T00:58:54.864Z,24.46
2023-11-30T00:59:24.860Z,24.47
2023-11-30T00:59:54.894Z,24.44
2023-11-30T01:00:24.923Z,24.47
2023-11-30T01:00:55.007Z,24.46
2023-11-30T01:01:25.041Z,24.47
2023-11-30T01:01:55.097Z,24.46
2023-11-30T01:02:25.132Z,24.44
2023-11-30T01:02:55.149Z,24.43
2023-11-30T01:03:25.224Z,24.42
2023-11-30T01:03:55.294Z,24.42
2023-11-30T01:04:25.397Z,24.42
2023-11-30T01:04:55.384Z,24.42
2023-11-30T01:05:25.393Z,24.46
2023-11-30T01:05:55.423Z,24.43
2023-11-30T01:06:25.441Z,24.44
2023-11-30T01:06:55.443Z,24.44
2023-11-30T01:07:25.424Z,24.46
2023-11-30T01:07:55.503Z,24.44
2023-11-30T01:08:25.520Z,24.46
2023-11-30T01:08:55.560Z,24.44
2023-11-30T01:09:25.613Z,24.46
2023-11-30T01:09:55.635Z,24.46
2023-11-30T01:10:25.632Z,24.44
2023-11-30T01:10:55.634Z,24.47
2023-11-30T01:11:25.641Z,24.46
2023-11-30T01:11:55.675Z,24.46
2023-11-30T01:12:25.687Z,24.47
2023-11-30T01:12:55.681Z,24.47
2023-11-30T01:13:25.699Z,24.49
2023-11-30T01:13:55.698Z,24.51
2023-11-30T01:14:25.707Z,24.47
2023-11-30T01:14:55.731Z,24.53
2023-11-30T01:15:25.773Z,24.53
2023-11-30T01:15:55.782Z,24.51
2023-11-30T01:16:25.797Z,24.54
2023-11-30T01:16:55.870Z,24.53
2023-11-30T01:17:25.976Z,24.50
2023-11-30T01:17:56.050Z,24.49
2023-11-30T01:18:26.204Z,24.50
2023-11-30T01:18:56.084Z,24.50
2023-11-30T01:19:26.207Z,24.51
2023-11-30T01:19:56.213Z,24.50
2023-11-30T01:20:26.268Z,24.49
2023-11-30T01:20:56.397Z,24.51
2023-11-30T01:21:26.460Z,24.54
2023-11-30T01:21:56.464Z,24.53
2023-11-30T01:22:26.529Z,24.49
2023-11-30T01:22:56.613Z,24.49
2023-11-30T01:23:26.701Z,24.50
2023-11-30T01:23:56.825Z,24.50
2023-11-30T01:24:26.919Z,24.49
2023-11-30T01:24:56.972Z,24.49
2023-11-30T01:25:27.059Z,24.46
2023-11-30T01:25:57.137Z,24.47
2023-11-30T01:26:27.239Z,24.47
2023-11-30T01:26:57.255Z,24.47
2023-11-30T01:27:27.292Z,24.51
2023-11-30T01:27:57.277Z,24.50
2023-11-30T01:28:27.284Z,24.49
2023-11-30T01:28:57.285Z,24.51
2023-11-30T01:29:27.283Z,24.50
2023-11-30T01:30:27.391Z,24.53
2023-11-30T01:30:57.366Z,24.57
2023-11-30T01:31:57.435Z,24.56
2023-11-30T01:32:27.540Z,24.56
2023-11-30T01:33:27.637Z,24.56
2023-11-30T01:33:57.518Z,24.50
2023-11-30T01:34:57.605Z,24.53
2023-11-30T01:35:27.666Z,24.51
2023-11-30T01:35:57.668Z,24.51
2023-11-30T01:36:57.771Z,24.56
2023-11-30T01:37:27.762Z,24.56
2023-11-30T01:37:57.776Z,24.54
2023-11-30T01:38:27.778Z,24.54
2023-11-30T01:38:57.842Z,24.56
2023-11-30T01:39:27.985Z,24.53
2023-11-30T01:39:57.892Z,24.51
2023-11-30T01:40:27.905Z,24.51
2023-11-30T01:40:57.909Z,24.51
2023-11-30T01:41:27.934Z,24.50
2023-11-30T01:41:58.025Z,24.47
2023-11-30T01:42:28.042Z,24.50
2023-11-30T01:42:58.021Z,24.50
2023-11-30T01:43:28.027Z,24.49
2023-11-30T01:43:58.096Z,24.51
2023-11-30T01:44:28.078Z,24.49
2023-11-30T01:44:58.151Z,24.51
2023-11-30T01:45:28.190Z,24.53
2023-11-30T01:46:03.498Z,24.51
2023-11-30T01:46:28.387Z,24.53
2023-11-30T01:46:58.386Z,24.50
2023-11-30T01:47:28.401Z,24.49
2023-11-30T01:47:58.449Z,24.49
2023-11-30T01:48:28.517Z,24.50
2023-11-30T01:48:58.534Z,24.49
2023-11-30T01:49:28.525Z,24.49
2023-11-30T01:49:58.523Z,24.50
2023-11-30T01:50:28.528Z,24.50
2023-11-30T01:50:58.642Z,24.46
2023-11-30T01:51:28.660Z,24.47
2023-11-30T01:51:58.653Z,24.44
2023-11-30T01:52:28.676Z,24.46
2023-11-30T01:52:58.693Z,24.43
2023-11-30T01:53:28.699Z,24.44
2023-11-30T01:53:58.739Z,24.44
2023-11-30T01:54:28.805Z,24.46
2023-11-30T01:54:58.797Z,24.42
2023-11-30T01:55:28.800Z,24.39
2023-11-30T01:55:58.814Z,24.44
2023-11-30T01:56:28.822Z,24.43
2023-11-30T01:56:58.855Z,24.44
2023-11-30T01:57:28.878Z,24.47
2023-11-30T01:57:58.849Z,24.47
2023-11-30T01:58:28.854Z,24.44
2023-11-30T01:58:58.872Z,24.49
2023-11-30T01:59:28.888Z,24.49
2023-11-30T02:00:29.063Z,24.47
2023-11-30T02:00:59.134Z,24.47
2023-11-30T02:01:29.303Z,24.47
2023-11-30T02:01:59.412Z,24.51
2023-11-30T02:02:29.258Z,24.50
2023-11-30T02:02:59.355Z,24.51
2023-11-30T02:03:29.307Z,24.46
2023-11-30T02:03:59.418Z,24.50
2023-11-30T02:04:29.463Z,24.51
2023-11-30T02:04:59.491Z,24.54
2023-11-30T02:05:29.493Z,24.56
2023-11-30T02:05:59.542Z,24.56
2023-11-30T02:06:29.603Z,24.53
2023-11-30T02:06:59.610Z,24.54
2023-11-30T02:07:29.619Z,24.51
2023-11-30T02:07:59.612Z,24.51
2023-11-30T02:08:59.699Z,24.50
2023-11-30T02:09:29.730Z,24.51
2023-11-30T02:09:59.769Z,24.49
2023-11-30T02:10:29.755Z,24.51
2023-11-30T02:11:29.841Z,24.50
2023-11-30T02:11:59.853Z,24.49
2023-11-30T02:12:59.922Z,24.44
2023-11-30T02:13:29.925Z,24.47
2023-11-30T02:13:59.943Z,24.47
2023-11-30T02:14:29.929Z,24.47
2023-11-30T02:14:59.962Z,24.49
2023-11-30T02:15:30.011Z,24.47
2023-11-30T02:16:00.035Z,24.49
2023-11-30T02:16:30.140Z,24.49
2023-11-30T02:17:00.097Z,24.47
2023-11-30T02:17:30.250Z,24.47
2023-11-30T02:18:00.478Z,24.50
2023-11-30T02:18:30.268Z,24.47
2023-11-30T02:19:00.239Z,24.53
2023-11-30T02:19:30.342Z,24.53
2023-11-30T02:20:00.408Z,24.54
2023-11-30T02:20:30.483Z,24.54
2023-11-30T02:21:00.601Z,24.51
2023-11-30T02:21:30.600Z,24.50
2023-11-30T02:22:00.614Z,24.51
2023-11-30T02:22:30.667Z,24.50
2023-11-30T02:23:00.756Z,24.47
2023-11-30T02:23:30.822Z,24.49
2023-11-30T02:24:00.956Z,24.47
2023-11-30T02:24:30.945Z,24.49
2023-11-30T02:25:00.944Z,24.53
2023-11-30T02:25:31.014Z,24.50
2023-11-30T02:26:01.037Z,24.46
2023-11-30T02:26:31.107Z,24.44
2023-11-30T02:27:01.161Z,24.43
2023-11-30T02:27:31.215Z,24.43
2023-11-30T02:28:01.230Z,24.43
2023-11-30T02:28:31.245Z,24.44
2023-11-30T02:29:01.243Z,24.44
2023-11-30T02:29:31.252Z,24.46
2023-11-30T02:30:01.260Z,24.43
2023-11-30T02:30:31.314Z,24.42
2023-11-30T02:31:01.348Z,24.42
2023-11-30T02:31:31.383Z,24.40
2023-11-30T02:32:01.421Z,24.39
2023-11-30T02:32:31.420Z,24.40
2023-11-30T02:33:01.595Z,24.40
2023-11-30T02:33:31.572Z,24.42
2023-11-30T02:34:01.561Z,24.43
2023-11-30T02:34:31.542Z,24.43
2023-11-30T02:35:01.543Z,24.46
2023-11-30T02:35:31.548Z,24.44
2023-11-30T02:36:01.583Z,24.43
2023-11-30T02:36:31.603Z,24.43
2023-11-30T02:37:01.638Z,24.43
2023-11-30T02:37:31.646Z,24.40
2023-11-30T02:38:01.622Z,24.42
2023-11-30T02:39:01.733Z,24.44
2023-11-30T02:39:31.765Z,24.42
2023-11-30T02:40:01.755Z,24.40
2023-11-30T02:40:31.760Z,24.43
2023-11-30T02:41:01.769Z,24.44
2023-11-30T02:41:31.770Z,24.42
2023-11-30T02:42:01.785Z,24.40
2023-11-30T02:42:31.805Z,24.44
2023-11-30T02:43:01.822Z,24.43
2023-11-30T02:43:31.819Z,24.42
2023-11-30T02:44:01.856Z,24.42
2023-11-30T02:44:31.872Z,24.40
2023-11-30T02:45:01.929Z,24.39
2023-11-30T02:45:31.977Z,24.39
2023-11-30T02:46:02.002Z,24.39
2023-11-30T02:46:32.097Z,24.36
2023-11-30T02:47:02.106Z,24.36
2023-11-30T02:47:32.131Z,24.33
2023-11-30T02:48:02.256Z,24.33
2023-11-30T02:48:32.216Z,24.35
2023-11-30T02:49:02.212Z,24.35
2023-11-30T02:49:32.183Z,24.35
2023-11-30T02:50:32.280Z,24.38
2023-11-30T02:51:02.315Z,24.38
2023-11-30T02:51:32.345Z,24.38
2023-11-30T02:52:02.335Z,24.38
2023-11-30T02:52:32.319Z,24.39
2023-11-30T02:53:02.346Z,24.38
2023-11-30T02:53:32.318Z,24.38
2023-11-30T02:54:32.422Z,24.39
2023-11-30T02:55:02.479Z,24.38
2023-11-30T02:55:32.466Z,24.38
2023-11-30T02:56:02.480Z,24.42
2023-11-30T02:56:32.474Z,24.38
2023-11-30T02:57:02.500Z,24.43
2023-11-30T02:57:32.565Z,24.40
2023-11-30T02:58:02.566Z,24.43
2023-11-30T02:58:32.567Z,24.43
2023-11-30T02:59:02.578Z,24.44
2023-11-30T02:59:32.689Z,24.46
2023-11-30T03:00:02.750Z,24.44
2023-11-30T03:00:32.831Z,24.42
2023-11-30T03:01:02.854Z,24.43
2023-11-30T03:01:32.965Z,24.44
2023-11-30T03:02:02.996Z,24.46
2023-11-30T03:02:33.016Z,24.43
2023-11-30T03:03:03.175Z,24.43
2023-11-30T03:03:33.313Z,24.46
2023-11-30T03:04:03.173Z,24.44
2023-11-30T03:04:33.164Z,24.44
2023-11-30T03:05:03.174Z,24.46
2023-11-30T03:05:33.200Z,24.43
2023-11-30T03:06:03.203Z,24.43
2023-11-30T03:06:33.252Z,24.46
2023-11-30T03:07:03.260Z,24.44
2023-11-30T03:07:33.258Z,24.43
2023-11-30T03:08:03.260Z,24.44
2023-11-30T03:08:33.294Z,24.47
2023-11-30T03:09:03.287Z,24.40
2023-11-30T03:10:03.350Z,24.44
2023-11-30T03:10:33.356Z,24.43
2023-11-30T03:11:03.360Z,24.46
2023-11-30T03:11:33.523Z,24.44
2023-11-30T03:12:03.429Z,24.43
2023-11-30T03:12:33.452Z,24.46
2023-11-30T03:13:03.558Z,24.47
2023-11-30T03:13:33.624Z,24.49
2023-11-30T03:14:03.660Z,24.47
2023-11-30T03:14:33.654Z,24.46
2023-11-30T03:15:03.740Z,24.46
2023-11-30T03:15:33.684Z,24.47
2023-11-30T03:16:03.701Z,24.44
2023-11-30T03:16:33.737Z,24.42
2023-11-30T03:17:03.715Z,24.40
2023-11-30T03:17:33.792Z,24.42
2023-11-30T03:18:04.107Z,24.46
2023-11-30T03:18:34.011Z,24.42
2023-11-30T03:19:33.998Z,24.46
2023-11-30T03:20:04.329Z,24.49
2023-11-30T03:20:34.166Z,24.47
2023-11-30T03:21:34.294Z,24.49
2023-11-30T03:22:04.370Z,24.50
2023-11-30T03:22:34.446Z,24.49
2023-11-30T03:23:04.519Z,24.47
2023-11-30T03:23:34.589Z,24.47
2023-11-30T03:24:04.714Z,24.44
2023-11-30T03:24:34.820Z,24.42
2023-11-30T03:25:04.778Z,24.47
2023-11-30T03:25:34.854Z,24.47
2023-11-30T03:26:04.928Z,24.47
2023-11-30T03:26:35.027Z,24.46
2023-11-30T03:27:05.037Z,24.46
2023-11-30T03:27:35.051Z,24.47
2023-11-30T03:28:05.045Z,24.47
2023-11-30T03:28:35.057Z,24.46
2023-11-30T03:29:05.088Z,24.43
2023-11-30T03:29:35.116Z,24.44
2023-11-30T03:30:05.135Z,24.42
2023-11-30T03:30:35.168Z,24.44
2023-11-30T03:31:05.147Z,24.39
2023-11-30T03:31:37.640Z,24.40
2023-11-30T03:32:05.261Z,24.40
2023-11-30T03:32:35.317Z,24.38
2023-11-30T03:33:05.384Z,24.38
2023-11-30T03:33:35.361Z,24.38
2023-11-30T03:34:05.390Z,24.38
2023-11-30T03:34:35.394Z,24.35
2023-11-30T03:35:05.510Z,24.39
2023-11-30T03:35:35.507Z,24.39
2023-11-30T03:36:05.665Z,24.39
2023-11-30T03:36:35.675Z,24.40
2023-11-30T03:37:05.649Z,24.39
2023-11-30T03:37:35.639Z,24.38
2023-11-30T03:38:05.640Z,24.42
2023-11-30T03:38:35.665Z,24.39
2023-11-30T03:39:05.745Z,24.42
2023-11-30T03:39:35.811Z,24.39
2023-11-30T03:40:05.794Z,24.38
2023-11-30T03:40:35.793Z,24.39
2023-11-30T03:41:05.800Z,24.39
2023-11-30T03:41:35.797Z,24.42
2023-11-30T03:42:05.822Z,24.44
2023-11-30T03:42:35.858Z,24.42
2023-11-30T03:43:05.868Z,24.44
2023-11-30T03:43:35.883Z,24.42
2023-11-30T03:44:05.920Z,24.43
2023-11-30T03:44:35.948Z,24.43
2023-11-30T03:45:05.959Z,24.40
2023-11-30T03:45:36.385Z,24.43
2023-11-30T03:46:06.034Z,24.42
2023-11-30T03:46:36.073Z,24.42
2023-11-30T03:47:06.081Z,24.42
2023-11-30T03:47:36.141Z,24.44
2023-11-30T03:48:06.242Z,24.46
2023-11-30T03:48:36.168Z,24.43
2023-11-30T03:49:06.163Z,24.44
2023-11-30T03:49:36.157Z,24.44
2023-11-30T03:50:36.236Z,24.40
2023-11-30T03:51:06.253Z,24.39
2023-11-30T03:51:36.293Z,24.40
2023-11-30T03:52:06.340Z,24.43
2023-11-30T03:52:36.390Z,24.42
2023-11-30T03:53:06.374Z,24.38
2023-11-30T03:53:36.375Z,24.40
2023-11-30T03:54:36.497Z,24.40
2023-11-30T03:55:06.567Z,24.42
2023-11-30T03:55:36.557Z,24.40
2023-11-30T03:56:36.637Z,24.42
2023-11-30T03:57:06.663Z,24.40
2023-11-30T03:57:36.703Z,24.44
2023-11-30T03:58:06.711Z,24.42
2023-11-30T03:58:36.832Z,24.43
2023-11-30T03:59:06.824Z,24.42
2023-11-30T03:59:36.835Z,24.43
2023-11-30T04:00:06.882Z,24.40
2023-11-30T04:00:36.939Z,24.44
2023-11-30T04:01:06.886Z,24.43
2023-11-30T04:01:36.968Z,24.46
2023-11-30T04:02:07.063Z,24.51
2023-11-30T04:02:37.070Z,24.49
2023-11-30T04:03:07.160Z,24.51
2023-11-30T04:03:37.193Z,24.49
2023-11-30T04:04:07.209Z,24.51
2023-11-30T04:04:37.305Z,24.53
2023-11-30T04:05:07.222Z,24.50
2023-11-30T04:05:37.312Z,24.46
2023-11-30T04:06:07.399Z,24.46
2023-11-30T04:06:37.401Z,24.46
2023-11-30T04:07:07.397Z,24.46
2023-11-30T04:07:37.395Z,24.43
2023-11-30T04:08:37.469Z,24.44
2023-11-30T04:09:07.492Z,24.42
2023-11-30T04:09:37.482Z,24.40
2023-11-30T04:10:07.583Z,24.38
2023-11-30T04:10:37.614Z,24.38
2023-11-30T04:11:07.615Z,24.36
2023-11-30T04:12:07.711Z,24.39
2023-11-30T04:12:37.689Z,24.36
2023-11-30T04:13:07.696Z,24.36
2023-11-30T04:14:07.783Z,24.33
2023-11-30T04:14:37.807Z,24.33
2023-11-30T04:15:07.842Z,24.32
2023-11-30T04:15:37.855Z,24.30
2023-11-30T04:16:07.878Z,24.32
2023-11-30T04:16:37.986Z,24.33
2023-11-30T04:17:08.128Z,24.33
2023-11-30T04:17:38.135Z,24.30
2023-11-30T04:18:08.296Z,24.36
2023-11-30T04:18:38.305Z,24.35
2023-11-30T04:19:08.366Z,24.32
2023-11-30T04:19:38.441Z,24.30
2023-11-30T04:20:08.553Z,24.27
2023-11-30T04:20:38.630Z,24.26
2023-11-30T04:21:08.714Z,24.24
2023-11-30T04:21:38.790Z,24.24
2023-11-30T04:22:08.871Z,24.24
2023-11-30T04:22:38.960Z,24.23
2023-11-30T04:23:09.032Z,24.22
2023-11-30T04:23:39.136Z,24.19
2023-11-30T04:24:09.238Z,24.22
2023-11-30T04:24:39.232Z,24.20
2023-11-30T04:25:09.306Z,24.13
2023-11-30T04:25:39.409Z,24.16
2023-11-30T04:26:09.482Z,24.13
2023-11-30T04:26:39.588Z,24.09
2023-11-30T04:27:09.622Z,24.06
2023-11-30T04:27:39.602Z,24.05
2023-11-30T04:28:09.603Z,24.04
2023-11-30T04:28:39.612Z,24.02
2023-11-30T04:29:09.614Z,24.04
2023-11-30T04:29:39.735Z,23.99
2023-11-30T04:30:09.750Z,23.98
2023-11-30T04:30:39.891Z,23.99
2023-11-30T04:31:09.909Z,23.96
2023-11-30T04:31:39.954Z,23.94
2023-11-30T04:32:09.940Z,23.92
2023-11-30T04:32:40.005Z,23.94
2023-11-30T04:33:10.088Z,23.98
2023-11-30T04:33:40.155Z,23.95
2023-11-30T04:34:10.172Z,23.91
2023-11-30T04:34:40.185Z,23.94
2023-11-30T04:35:10.176Z,23.94
2023-11-30T04:35:40.183Z,23.95
2023-11-30T04:36:10.199Z,23.94
2023-11-30T04:36:40.204Z,23.88
2023-11-30T04:37:10.186Z,23.87
2023-11-30T04:37:40.198Z,23.84
2023-11-30T04:38:10.205Z,23.80
2023-11-30T04:38:40.323Z,23.76
2023-11-30T04:39:10.408Z,23.71
2023-11-30T04:39:40.429Z,23.71
2023-11-30T04:40:10.424Z,23.70
2023-11-30T04:41:10.525Z,23.62
2023-11-30T04:41:40.509Z,23.64
2023-11-30T04:42:40.592Z,23.57
2023-11-30T04:43:10.697Z,23.56
2023-11-30T04:43:40.901Z,23.50
2023-11-30T04:44:10.793Z,23.50
2023-11-30T04:45:10.949Z,23.47
2023-11-30T04:45:41.006Z,23.44
2023-11-30T04:46:11.013Z,23.40
2023-11-30T04:46:41.082Z,23.39
2023-11-30T04:47:11.084Z,23.37
2023-11-30T04:47:41.236Z,23.37
2023-11-30T04:48:11.389Z,23.39
2023-11-30T04:48:42.492Z,23.36
2023-11-30T04:49:11.338Z,23.37
2023-11-30T04:49:41.342Z,23.34
2023-11-30T04:50:11.344Z,23.34
2023-11-30T04:50:41.345Z,23.32
2023-11-30T04:51:11.462Z,23.33
2023-11-30T04:51:41.358Z,23.32
2023-11-30T04:52:11.357Z,23.32
2023-11-30T04:52:41.371Z,23.29
2023-11-30T04:53:11.378Z,23.27
2023-11-30T04:53:41.392Z,23.29
2023-11-30T04:54:11.404Z,23.27
2023-11-30T04:54:41.553Z,23.27
2023-11-30T04:55:11.539Z,23.26
2023-11-30T04:55:41.539Z,23.22
2023-11-30T04:56:11.556Z,23.21
2023-11-30T04:56:41.676Z,23.22
2023-11-30T04:57:11.677Z,23.22
2023-11-30T04:58:11.776Z,23.23
2023-11-30T04:58:41.765Z,23.16
2023-11-30T04:59:11.765Z,23.21
2023-11-30T04:59:41.788Z,23.18
2023-11-30T05:00:11.782Z,23.16
2023-11-30T05:00:41.888Z,23.18
2023-11-30T05:01:11.909Z,23.21
2023-11-30T05:01:42.043Z,23.15
2023-11-30T05:02:12.073Z,23.16
2023-11-30T05:02:42.078Z,23.18
2023-11-30T05:03:42.267Z,23.15
2023-11-30T05:04:12.127Z,23.18
2023-11-30T05:04:42.302Z,23.15
2023-11-30T05:05:12.150Z,23.15
2023-11-30T05:05:42.137Z,23.15
2023-11-30T05:06:12.184Z,23.13
2023-11-30T05:06:42.323Z,23.15
2023-11-30T05:07:12.216Z,23.13
2023-11-30T05:08:14.114Z,23.07
2023-11-30T05:08:42.385Z,23.12
2023-11-30T05:09:12.407Z,23.21
2023-11-30T05:09:42.396Z,23.19
2023-11-30T05:10:12.397Z,23.23
2023-11-30T05:10:42.415Z,23.25
2023-11-30T05:11:42.485Z,23.30
2023-11-30T05:12:12.528Z,23.32
2023-11-30T05:12:42.517Z,23.26
2023-11-30T05:13:12.511Z,23.25
2023-11-30T05:13:42.528Z,23.26
2023-11-30T05:14:12.519Z,23.32
2023-11-30T05:14:42.530Z,23.37
2023-11-30T05:15:12.535Z,23.40
2023-11-30T05:15:43.783Z,23.46
2023-11-30T05:16:12.594Z,23.49
2023-11-30T05:16:42.633Z,23.49
2023-11-30T05:17:12.656Z,23.44
2023-11-30T05:17:43.424Z,23.46
2023-11-30T05:18:12.878Z,23.43
2023-11-30T05:19:12.904Z,23.37
2023-11-30T05:19:42.998Z,23.32
2023-11-30T05:20:13.075Z,23.34
2023-11-30T05:20:43.177Z,23.29
2023-11-30T05:21:13.281Z,23.25
2023-11-30T05:21:43.353Z,23.22
2023-11-30T05:22:13.418Z,23.23
2023-11-30T05:22:43.501Z,23.23
2023-11-30T05:23:13.581Z,23.23
2023-11-30T05:23:43.663Z,23.21
2023-11-30T05:24:13.760Z,23.21
2023-11-30T05:24:43.831Z,23.22
2023-11-30T05:25:13.907Z,23.22
2023-11-30T05:25:44.341Z,23.23
2023-11-30T05:26:14.064Z,23.22
2023-11-30T05:26:44.170Z,23.22
2023-11-30T05:27:14.320Z,23.23
2023-11-30T05:27:44.332Z,23.22
2023-11-30T05:28:14.324Z,23.19
2023-11-30T05:29:14.373Z,23.23
2023-11-30T05:29:44.378Z,23.22
2023-11-30T05:30:14.506Z,23.22
2023-11-30T05:30:44.477Z,23.22
2023-11-30T05:31:14.496Z,23.22
2023-11-30T05:31:44.484Z,23.23
2023-11-30T05:32:14.486Z,23.23
2023-11-30T05:33:14.623Z,23.26
2023-11-30T05:33:44.638Z,23.23
2023-11-30T05:34:14.629Z,23.25
2023-11-30T05:34:44.842Z,23.27
2023-11-30T05:35:14.742Z,23.26
2023-11-30T05:36:14.866Z,23.27
2023-11-30T05:36:44.852Z,23.26
2023-11-30T05:37:14.863Z,23.26
2023-11-30T05:37:44.870Z,23.27
2023-11-30T05:38:14.869Z,23.30
2023-11-30T05:38:44.872Z,23.32
2023-11-30T05:39:15.036Z,23.34
2023-11-30T05:39:45.059Z,23.32
2023-11-30T05:40:15.050Z,23.34
2023-11-30T05:40:45.162Z,23.32
2023-11-30T05:41:15.158Z,23.39
2023-11-30T05:41:45.173Z,23.34
2023-11-30T05:42:15.200Z,23.36
2023-11-30T05:42:45.192Z,23.34
2023-11-30T05:43:15.206Z,23.40
2023-11-30T05:43:45.250Z,23.40
2023-11-30T05:44:15.240Z,23.44
2023-11-30T05:44:45.258Z,23.46
2023-11-30T05:45:15.335Z,23.49
2023-11-30T05:45:45.343Z,23.46
2023-11-30T05:46:15.342Z,23.49
2023-11-30T05:46:47.934Z,23.51
2023-11-30T05:47:15.455Z,23.49
2023-11-30T05:48:15.594Z,23.54
2023-11-30T05:48:45.586Z,23.50
2023-11-30T05:49:15.678Z,23.54
2023-11-30T05:49:45.599Z,23.57
2023-11-30T05:50:45.676Z,23.61
2023-11-30T05:51:15.705Z,23.64
2023-11-30T05:51:45.721Z,23.67
2023-11-30T05:52:15.721Z,23.70
2023-11-30T05:52:45.724Z,23.74
2023-11-30T05:53:15.722Z,23.77
2023-11-30T05:53:45.784Z,23.80
2023-11-30T05:54:15.800Z,23.80
2023-11-30T05:54:45.877Z,23.85
2023-11-30T05:55:15.871Z,23.84
2023-11-30T05:55:45.875Z,23.87
2023-11-30T05:56:15.979Z,23.88
2023-11-30T05:56:45.989Z,23.94
2023-11-30T05:57:16.032Z,23.98
2023-11-30T05:57:46.085Z,23.96
2023-11-30T05:58:16.089Z,23.92
2023-11-30T05:58:46.132Z,23.95
2023-11-30T05:59:16.120Z,23.92
2023-11-30T06:00:16.331Z,23.91
2023-11-30T06:00:46.234Z,23.89
2023-11-30T06:01:16.247Z,23.85
2023-11-30T06:01:46.312Z,23.87
2023-11-30T06:02:16.287Z,23.87
2023-11-30T06:02:46.316Z,23.81
2023-11-30T06:03:16.468Z,23.85
2023-11-30T06:03:46.499Z,23.87
2023-11-30T06:04:16.480Z,23.85
2023-11-30T06:04:46.563Z,23.91
2023-11-30T06:05:16.724Z,23.91
2023-11-30T06:05:46.565Z,23.89
2023-11-30T06:06:16.572Z,23.92
2023-11-30T06:06:46.577Z,23.94
2023-11-30T06:07:16.587Z,23.92
2023-11-30T06:07:46.590Z,23.92
2023-11-30T06:08:16.591Z,23.94
2023-11-30T06:08:46.599Z,23.96
2023-11-30T06:09:16.621Z,23.98
2023-11-30T06:09:46.623Z,23.99
2023-11-30T06:10:16.629Z,24.02
2023-11-30T06:10:46.740Z,24.02
2023-11-30T06:11:16.756Z,24.02
2023-11-30T06:11:46.757Z,24.01
2023-11-30T06:12:16.946Z,24.04
2023-11-30T06:12:46.850Z,24.04
2023-11-30T06:13:46.927Z,24.02
2023-11-30T06:14:16.949Z,24.08
2023-11-30T06:15:17.020Z,24.11
2023-11-30T06:15:47.134Z,24.09
2023-11-30T06:16:17.044Z,24.08
2023-11-30T06:16:47.035Z,24.05
2023-11-30T06:17:17.129Z,24.05
2023-11-30T06:17:47.245Z,24.04
2023-11-30T06:18:17.235Z,23.96
2023-11-30T06:18:47.287Z,24.02
2023-11-30T06:19:17.365Z,23.98
2023-11-30T06:19:47.464Z,23.98
2023-11-30T06:20:17.543Z,23.98
2023-11-30T06:20:47.634Z,23.94
2023-11-30T06:21:17.732Z,23.95
2023-11-30T06:21:47.801Z,23.96
2023-11-30T06:22:17.907Z,23.95
2023-11-30T06:22:47.983Z,23.99
2023-11-30T06:23:18.062Z,23.99
2023-11-30T06:23:48.144Z,23.94
2023-11-30T06:24:18.317Z,23.98
2023-11-30T06:24:48.288Z,24.02
2023-11-30T06:25:18.358Z,23.99
2023-11-30T06:25:48.452Z,23.98
2023-11-30T06:26:18.557Z,24.01
2023-11-30T06:26:48.638Z,24.01
2023-11-30T06:27:18.684Z,24.01
2023-11-30T06:27:48.669Z,24.01
2023-11-30T06:28:18.668Z,24.04
2023-11-30T06:28:48.679Z,24.02
2023-11-30T06:29:18.710Z,24.04
2023-11-30T06:29:48.701Z,24.04
2023-11-30T06:30:48.823Z,24.11
2023-11-30T06:31:18.899Z,24.08
2023-11-30T06:31:48.887Z,24.06
2023-11-30T06:32:18.889Z,24.09
2023-11-30T06:32:48.961Z,24.06
2023-11-30T06:33:18.997Z,24.06
2023-11-30T06:33:49.028Z,24.06
2023-11-30T06:34:19.011Z,24.06
2023-11-30T06:34:49.023Z,24.08
2023-11-30T06:35:19.010Z,24.06
2023-11-30T06:35:49.100Z,24.06
2023-11-30T06:36:19.137Z,24.06
2023-11-30T06:36:49.126Z,24.09
2023-11-30T06:37:19.137Z,24.08
2023-11-30T06:37:49.128Z,24.05
2023-11-30T06:38:19.145Z,24.09
2023-11-30T06:38:49.158Z,24.12
2023-11-30T06:39:19.187Z,24.13
2023-11-30T06:39:49.188Z,24.16
2023-11-30T06:40:19.204Z,24.13
2023-11-30T06:40:49.209Z,24.16
2023-11-30T06:41:19.221Z,24.17
2023-11-30T06:41:50.586Z,24.19
2023-11-30T06:42:19.313Z,24.20
2023-11-30T06:42:49.294Z,24.22
2023-11-30T06:43:19.312Z,24.19
2023-11-30T06:43:49.293Z,24.19
2023-11-30T06:44:19.438Z,24.19
2023-11-30T06:44:49.486Z,24.22
2023-11-30T06:45:19.536Z,24.23
2023-11-30T06:45:49.588Z,24.26
2023-11-30T06:46:19.591Z,24.22
2023-11-30T06:46:49.715Z,24.23
2023-11-30T06:47:19.822Z,24.22
2023-11-30T06:47:49.838Z,24.23
2023-11-30T06:48:19.919Z,24.22
2023-11-30T06:48:50.051Z,24.24
2023-11-30T06:49:20.080Z,24.33